aviador You're here:

KRID Decoded Metar

in
Report Time2017-04-29 17:35:00
UTC Time2017-04-29 17:45:23
Flight Rules vfr VFR
Wind170° at 06 kt
W.Decomp.*RWY 15: 5.6 kt HW 2.1 kt RCW
RWY 24: 2.1 kt HW 5.6 kt LCW
Visibility9999 m
Phenomena:N/A
Clouds:Scattered 006 Hf
Scattered 110 Hf
Expected CloudBase > 400 ft AGL from Temp-Dew spread
CeilingNone
Temp18°C
Dew Point17°C (94% RH)
QNH1019 hPa
Raw Report
METAR KRID 291735Z AUTO 17006KT 10SM SCT006 SCT110 18/17 A3009 RMK
AO2=

Extra information for KRID:More info

Social comments